LTAF/ADA METAR and TAF weather

Enter ICAO airport designator
Station Type Date Time Source
LTAF METAR 2019/10/15 20:50 UTC NOAA

LTAF 152050Z 17003KT 030V200 9999 SCT035 23/16 Q1014 NOSIG


Station Type Date Time Source
LTAF Decoded METAR 2019/10/15 20:50 UTC NOAA

Adana / Sakirpasa, Turkey (LTAF) 36-59N 035-18E 20M
Oct 15, 2019 - 04:50 PM EDT / 2019.10.15 2050 UTC
Wind: from the S (170 degrees) at 3 MPH (3 KT) (direction variable):0
Visibility: greater than 7 mile(s):0
Sky conditions: partly cloudy
Temperature: 73 F (23 C)
Dew Point: 60 F (16 C)
Relative Humidity: 64%
Pressure (altimeter): 29.94 in. Hg (1014 hPa)
ob: LTAF 152050Z 17003KT 030V200 9999 SCT035 23/16 Q1014 NOSIG
cycle: 21

Station Type Date Time Source
LTAF TAF 2019/10/15 18:00 UTC NOAA

TAF LTAF 151640Z 1518/1618 VRB02KT 9999 SCT035

Example: see airport list